Time;durP1;ratioP1;P1;durP2;ratioP2;P2;SDS_P1;SDS_P2;PMS_P1;PMS_P2;Temp;Humidity;BMP_temperature;BMP_pressure;BME280_temperature;BME280_humidity;BME280_pressure;Samples;Min_cycle;Max_cycle;Signal;HPM_P1;HPM_P2
2022/12/03 00:00:21;;;;;;;4.07;1.83;;;;;;;;;;1699291;82;22849;-46
2022/12/03 00:02:47;;;;;;;3.80;1.80;;;;;;;;;;1702211;82;21865;-46
2022/12/03 00:05:14;;;;;;;5.80;1.97;;;;;;;;;;1704479;82;21557;-46
2022/12/03 00:07:40;;;;;;;5.13;2.00;;;;;;;;;;1704513;82;21084;-46
2022/12/03 00:10:07;;;;;;;4.30;1.73;;;;;;;;;;1705373;82;21526;-46
2022/12/03 00:12:33;;;;;;;4.30;1.50;;;;;;;;;;1704999;82;21914;-46
2022/12/03 00:15:00;;;;;;;3.20;1.27;;;;;;;;;;1704009;82;21033;-46
2022/12/03 00:17:26;;;;;;;3.07;1.13;;;;;;;;;;1706637;82;21081;-46
2022/12/03 00:19:53;;;;;;;5.97;1.40;;;;;;;;;;1711220;82;21605;-46
2022/12/03 00:22:19;;;;;;;4.77;1.40;;;;;;;;;;1701832;82;21047;-46
2022/12/03 00:24:45;;;;;;;2.60;1.00;;;;;;;;;;1711891;82;21810;-46
2022/12/03 00:27:11;;;;;;;2.57;1.33;;;;;;;;;;1708951;82;21069;-46
2022/12/03 00:29:37;;;;;;;4.43;1.00;;;;;;;;;;1710544;82;21049;-46
2022/12/03 00:32:04;;;;;;;5.80;1.20;;;;;;;;;;1707145;82;21053;-46
2022/12/03 00:34:30;;;;;;;5.53;1.20;;;;;;;;;;1700555;82;21061;-46
2022/12/03 00:36:57;;;;;;;2.53;0.93;;;;;;;;;;1706464;82;21776;-46
2022/12/03 00:39:23;;;;;;;3.00;1.20;;;;;;;;;;1700508;82;21026;-45
2022/12/03 00:41:49;;;;;;;2.57;1.37;;;;;;;;;;1707444;82;21140;-46
2022/12/03 00:44:15;;;;;;;2.77;1.10;;;;;;;;;;1705880;82;21086;-46
2022/12/03 00:46:42;;;;;;;4.40;1.20;;;;;;;;;;1699033;82;21082;-46
2022/12/03 00:49:09;;;;;;;2.03;1.10;;;;;;;;;;1699574;82;21834;-46
2022/12/03 00:51:35;;;;;;;1.50;0.90;;;;;;;;;;1705271;82;21089;-46
2022/12/03 00:54:01;;;;;;;3.50;0.93;;;;;;;;;;1707682;82;21061;-46
2022/12/03 00:56:27;;;;;;;2.50;1.10;;;;;;;;;;1700879;82;21061;-46
2022/12/03 00:58:54;;;;;;;3.83;0.90;;;;;;;;;;1704258;82;21083;-46
2022/12/03 01:01:20;;;;;;;4.03;0.87;;;;;;;;;;1705157;82;21826;-46
2022/12/03 01:03:46;;;;;;;2.00;0.90;;;;;;;;;;1702450;82;21098;-46
2022/12/03 01:06:12;;;;;;;2.87;1.03;;;;;;;;;;1704683;82;21098;-46
2022/12/03 01:08:38;;;;;;;1.70;0.83;;;;;;;;;;1704145;82;21045;-46
2022/12/03 01:11:36;;;;;;;3.53;0.90;;;;;;;;;;1705628;82;21081;-46
2022/12/03 01:13:34;;;;;;;3.87;0.80;;;;;;;;;;1697853;82;21570;-46
2022/12/03 01:16:00;;;;;;;3.40;0.80;;;;;;;;;;1707744;82;21088;-46
2022/12/03 01:18:27;;;;;;;2.93;0.90;;;;;;;;;;1705989;82;21256;-46
2022/12/03 01:20:53;;;;;;;9.60;1.00;;;;;;;;;;1703206;82;21667;-46
2022/12/03 01:23:19;;;;;;;2.17;0.80;;;;;;;;;;1705742;82;21551;-46
2022/12/03 01:25:45;;;;;;;2.17;1.00;;;;;;;;;;1705005;82;21924;-46
2022/12/03 01:28:11;;;;;;;2.07;0.80;;;;;;;;;;1706619;82;21037;-46
2022/12/03 01:32:15;;;;;;;3.10;1.10;;;;;;;;;;1711868;82;21081;-46
2022/12/03 01:33:06;;;;;;;1.73;0.90;;;;;;;;;;1703094;82;21014;-46
2022/12/03 01:35:33;;;;;;;2.70;0.80;;;;;;;;;;1708298;82;21033;-46
2022/12/03 01:37:59;;;;;;;2.70;0.80;;;;;;;;;;1709665;82;23442;-46
2022/12/03 01:40:25;;;;;;;2.40;0.90;;;;;;;;;;1712552;82;21736;-46
2022/12/03 01:42:51;;;;;;;3.20;0.80;;;;;;;;;;1713410;82;21050;-46
2022/12/03 01:45:21;;;;;;;2.70;0.80;;;;;;;;;;1706455;82;21044;-46
2022/12/03 01:47:47;;;;;;;1.57;0.70;;;;;;;;;;1715892;82;21356;-46
2022/12/03 01:50:29;;;;;;;3.80;0.80;;;;;;;;;;1707176;82;21830;-46
2022/12/03 01:52:55;;;;;;;2.53;0.80;;;;;;;;;;1707814;82;21048;-46
2022/12/03 01:55:21;;;;;;;2.07;0.70;;;;;;;;;;1708319;82;21080;-46
2022/12/03 01:57:52;;;;;;;4.37;1.00;;;;;;;;;;1714900;82;21391;-46
2022/12/03 02:00:23;;;;;;;1.40;0.80;;;;;;;;;;1706840;82;21066;-46
2022/12/03 02:02:56;;;;;;;2.70;0.80;;;;;;;;;;1710578;82;21953;-46
2022/12/03 02:05:25;;;;;;;2.07;0.80;;;;;;;;;;1711691;82;21076;-46
2022/12/03 02:07:51;;;;;;;2.07;0.70;;;;;;;;;;1704078;82;21057;-46
2022/12/03 02:10:22;;;;;;;3.50;1.00;;;;;;;;;;1704467;82;21036;-46
2022/12/03 02:13:04;;;;;;;2.57;0.73;;;;;;;;;;1709691;82;21522;-46
2022/12/03 02:15:30;;;;;;;3.33;0.80;;;;;;;;;;1708100;82;21772;-46
2022/12/03 02:17:56;;;;;;;3.73;0.80;;;;;;;;;;1710206;82;21522;-46
2022/12/03 02:20:23;;;;;;;3.63;0.83;;;;;;;;;;1719946;82;21033;-46
2022/12/03 02:23:09;;;;;;;1.33;0.70;;;;;;;;;;1711356;82;21037;-46
2022/12/03 02:25:35;;;;;;;1.17;0.60;;;;;;;;;;1712588;82;21101;-46
2022/12/03 02:28:02;;;;;;;1.47;0.70;;;;;;;;;;1712055;82;22463;-46
2022/12/03 02:30:29;;;;;;;1.50;0.87;;;;;;;;;;1718908;82;21705;-46
2022/12/03 02:32:55;;;;;;;1.50;0.70;;;;;;;;;;1713185;82;21092;-46
2022/12/03 02:35:23;;;;;;;2.70;0.70;;;;;;;;;;1709052;82;21559;-46
2022/12/03 02:37:57;;;;;;;2.50;1.00;;;;;;;;;;1708452;82;21030;-46
2022/12/03 02:40:25;;;;;;;2.80;0.70;;;;;;;;;;1712068;82;21866;-46
2022/12/03 02:42:54;;;;;;;5.63;0.90;;;;;;;;;;1712194;82;21648;-46
2022/12/03 02:45:31;;;;;;;3.93;0.80;;;;;;;;;;1713673;82;21069;-46
2022/12/03 02:48:09;;;;;;;1.97;1.20;;;;;;;;;;1720720;82;21409;-47
2022/12/03 02:50:38;;;;;;;1.70;0.70;;;;;;;;;;1680736;82;22153;-47
2022/12/03 02:53:06;;;;;;;1.57;0.63;;;;;;;;;;1710261;82;21896;-47
2022/12/03 02:55:32;;;;;;;2.50;0.70;;;;;;;;;;1715656;82;21106;-45
2022/12/03 02:57:59;;;;;;;1.20;0.60;;;;;;;;;;1686038;83;21068;-46
2022/12/03 03:00:25;;;;;;;5.80;0.60;;;;;;;;;;1682141;82;21046;-45
2022/12/03 03:02:51;;;;;;;3.10;1.20;;;;;;;;;;1683990;82;21314;-47
2022/12/03 03:05:19;;;;;;;4.80;0.70;;;;;;;;;;1658811;82;21854;-48
2022/12/03 03:09:13;;;;;;;1.27;0.60;;;;;;;;;;1796708;77;28284;-45
2022/12/03 03:11:39;;;;;;;2.77;0.60;;;;;;;;;;1794162;78;21088;-44
2022/12/03 03:14:05;;;;;;;1.20;0.70;;;;;;;;;;1802164;77;23864;-44
2022/12/03 03:16:33;;;;;;;2.50;0.60;;;;;;;;;;1796826;78;21051;-45
2022/12/03 03:18:59;;;;;;;2.53;0.70;;;;;;;;;;1785474;78;20989;-45
2022/12/03 03:21:26;;;;;;;2.70;0.83;;;;;;;;;;1771986;79;21075;-45
2022/12/03 03:23:52;;;;;;;1.77;0.70;;;;;;;;;;1769828;79;21061;-45
2022/12/03 03:26:18;;;;;;;1.30;0.70;;;;;;;;;;1781721;78;21904;-44
2022/12/03 03:28:46;;;;;;;3.63;0.73;;;;;;;;;;1769156;79;21030;-44
2022/12/03 03:31:13;;;;;;;1.10;0.70;;;;;;;;;;1773726;78;21057;-47
2022/12/03 03:33:39;;;;;;;1.73;0.60;;;;;;;;;;1746973;79;21086;-44
2022/12/03 03:36:06;;;;;;;3.73;0.80;;;;;;;;;;1773259;79;21439;-46
2022/12/03 03:38:32;;;;;;;1.83;1.33;;;;;;;;;;1771354;79;22009;-44
2022/12/03 03:40:58;;;;;;;2.17;0.80;;;;;;;;;;1776666;78;20990;-46
2022/12/03 03:43:24;;;;;;;3.10;0.60;;;;;;;;;;1771387;79;21037;-44
2022/12/03 03:45:51;;;;;;;2.67;1.23;;;;;;;;;;1777861;79;21056;-45
2022/12/03 03:48:17;;;;;;;3.90;0.73;;;;;;;;;;1770007;79;21039;-46
2022/12/03 03:50:43;;;;;;;1.83;0.70;;;;;;;;;;1780898;78;21902;-44
2022/12/03 03:53:10;;;;;;;2.33;0.80;;;;;;;;;;1773292;79;21033;-44
2022/12/03 03:55:36;;;;;;;1.70;0.67;;;;;;;;;;1773365;79;21044;-44
2022/12/03 03:58:02;;;;;;;2.90;0.80;;;;;;;;;;1774674;79;21085;-44
2022/12/03 04:00:29;;;;;;;3.77;0.97;;;;;;;;;;1766254;79;21544;-45
2022/12/03 04:02:55;;;;;;;3.37;1.10;;;;;;;;;;1775264;79;21760;-45
2022/12/03 04:05:22;;;;;;;2.93;0.93;;;;;;;;;;1772360;79;21032;-44
2022/12/03 04:07:48;;;;;;;2.13;0.80;;;;;;;;;;1778130;78;21046;-47
2022/12/03 04:12:59;;;;;;;1.45;0.72;;;;;;;;;;1768150;79;21085;-45
2022/12/03 04:15:26;;;;;;;2.43;0.90;;;;;;;;;;1765156;79;21864;-46
2022/12/03 04:20:39;;;;;;;3.00;0.80;;;;;;;;;;1763041;79;21570;-46
2022/12/03 04:23:05;;;;;;;1.50;0.80;;;;;;;;;;1767761;80;21092;-46
2022/12/03 04:36:31;;;;;;;2.40;0.72;;;;;;;;;;1732058;79;21379;-48
2022/12/03 04:38:59;;;;;;;4.30;0.80;;;;;;;;;;1764248;79;21080;-45
2022/12/03 04:41:25;;;;;;;1.90;0.70;;;;;;;;;;1762454;79;21837;-46
2022/12/03 04:46:36;;;;;;;2.55;0.75;;;;;;;;;;1765289;79;21520;-45
2022/12/03 04:49:02;;;;;;;1.53;0.90;;;;;;;;;;1761702;79;21045;-47
2022/12/03 04:51:28;;;;;;;2.10;0.60;;;;;;;;;;1768571;79;21063;-47
2022/12/03 04:53:54;;;;;;;2.70;0.80;;;;;;;;;;1765441;79;21823;-45
2022/12/03 04:56:21;;;;;;;2.03;1.03;;;;;;;;;;1770466;79;21095;-45
2022/12/03 04:58:47;;;;;;;1.63;0.70;;;;;;;;;;1771161;79;21017;-45
2022/12/03 05:01:13;;;;;;;3.83;1.10;;;;;;;;;;1766725;79;21089;-45
2022/12/03 05:03:39;;;;;;;2.33;0.80;;;;;;;;;;1771443;80;21052;-46
2022/12/03 05:06:06;;;;;;;3.63;0.80;;;;;;;;;;1766312;79;21849;-46
2022/12/03 05:08:33;;;;;;;3.47;0.90;;;;;;;;;;1768618;80;21514;-45
2022/12/03 05:10:59;;;;;;;2.50;0.80;;;;;;;;;;1758320;80;21074;-47
2022/12/03 05:13:25;;;;;;;4.43;0.90;;;;;;;;;;1756836;79;21136;-44
2022/12/03 05:15:51;;;;;;;2.57;0.90;;;;;;;;;;1758955;79;21451;-45
2022/12/03 05:18:17;;;;;;;2.00;0.90;;;;;;;;;;1761255;79;21975;-46
2022/12/03 05:20:44;;;;;;;3.07;0.67;;;;;;;;;;1758686;80;21098;-46
2022/12/03 05:23:10;;;;;;;2.27;0.90;;;;;;;;;;1762798;79;21035;-45
2022/12/03 05:25:36;;;;;;;3.37;0.90;;;;;;;;;;1760872;79;22088;-47
2022/12/03 05:28:03;;;;;;;2.47;0.90;;;;;;;;;;1761972;80;21097;-47
2022/12/03 05:30:29;;;;;;;4.30;0.70;;;;;;;;;;1761405;79;21956;-47
2022/12/03 05:32:55;;;;;;;1.47;0.80;;;;;;;;;;1760214;79;21984;-45
2022/12/03 05:35:22;;;;;;;2.00;0.83;;;;;;;;;;1760259;79;21108;-46
2022/12/03 05:37:48;;;;;;;1.50;0.70;;;;;;;;;;1755397;79;21093;-45
2022/12/03 05:40:14;;;;;;;1.30;0.70;;;;;;;;;;1759950;79;21014;-45
2022/12/03 05:42:53;;;;;;;1.53;0.83;;;;;;;;;;1758596;79;21880;-48
2022/12/03 05:45:24;;;;;;;2.30;0.70;;;;;;;;;;1756153;79;21534;-45
2022/12/03 05:47:51;;;;;;;1.63;0.60;;;;;;;;;;1757968;79;21037;-45
2022/12/03 05:50:18;;;;;;;2.70;0.80;;;;;;;;;;1757894;79;21043;-46
2022/12/03 05:52:44;;;;;;;4.00;0.80;;;;;;;;;;1758395;79;21676;-46
2022/12/03 05:55:10;;;;;;;1.30;0.70;;;;;;;;;;1757522;79;21827;-45
2022/12/03 05:57:37;;;;;;;2.43;1.10;;;;;;;;;;1760229;79;21057;-45
2022/12/03 06:00:11;;;;;;;3.43;1.40;;;;;;;;;;1759479;79;21065;-45
2022/12/03 06:02:41;;;;;;;1.53;0.90;;;;;;;;;;1760950;79;21053;-45
2022/12/03 06:05:07;;;;;;;2.23;0.90;;;;;;;;;;1756456;79;21120;-48
2022/12/03 06:07:34;;;;;;;1.63;0.90;;;;;;;;;;1754386;79;22462;-46
2022/12/03 06:10:30;;;;;;;1.40;0.80;;;;;;;;;;1777232;78;27828;-45
2022/12/03 06:12:56;;;;;;;2.40;0.90;;;;;;;;;;1748458;80;21096;-46
2022/12/03 06:15:22;;;;;;;5.67;0.90;;;;;;;;;;1756685;80;22498;-46
2022/12/03 06:17:48;;;;;;;3.70;1.13;;;;;;;;;;1752770;80;21098;-46
2022/12/03 06:20:16;;;;;;;2.27;1.13;;;;;;;;;;1740091;80;21025;-46
2022/12/03 06:22:43;;;;;;;2.13;1.00;;;;;;;;;;1738966;80;21027;-47
2022/12/03 06:25:09;;;;;;;1.87;0.90;;;;;;;;;;1736961;80;21064;-47
2022/12/03 06:27:35;;;;;;;5.33;1.10;;;;;;;;;;1738772;80;22196;-46
2022/12/03 06:30:02;;;;;;;2.10;0.80;;;;;;;;;;1737586;80;21063;-46
2022/12/03 06:32:28;;;;;;;2.77;0.80;;;;;;;;;;1740575;80;21105;-45
2022/12/03 06:34:54;;;;;;;3.17;0.83;;;;;;;;;;1752213;80;21528;-46
2022/12/03 06:37:20;;;;;;;3.60;1.00;;;;;;;;;;1740316;80;21003;-46
2022/12/03 06:39:46;;;;;;;1.23;0.77;;;;;;;;;;1741081;80;21942;-47
2022/12/03 06:42:13;;;;;;;4.70;1.30;;;;;;;;;;1737669;80;21127;-45
2022/12/03 06:44:39;;;;;;;2.90;1.10;;;;;;;;;;1747061;80;21524;-47
2022/12/03 06:47:05;;;;;;;2.60;1.10;;;;;;;;;;1744473;80;21030;-45
2022/12/03 06:49:31;;;;;;;4.13;0.83;;;;;;;;;;1732764;80;21532;-45
2022/12/03 06:51:57;;;;;;;2.67;1.00;;;;;;;;;;1732775;80;21945;-46
2022/12/03 06:54:23;;;;;;;2.40;1.03;;;;;;;;;;1740085;80;21037;-45
2022/12/03 06:56:49;;;;;;;9.80;1.10;;;;;;;;;;1736886;80;21096;-47
2022/12/03 06:59:15;;;;;;;3.53;1.20;;;;;;;;;;1737371;80;21029;-45
2022/12/03 07:01:41;;;;;;;4.10;0.80;;;;;;;;;;1736184;80;21610;-46
2022/12/03 07:04:08;;;;;;;3.10;0.93;;;;;;;;;;1741277;80;21787;-46
2022/12/03 07:06:34;;;;;;;2.80;1.10;;;;;;;;;;1736587;80;21070;-47
2022/12/03 07:11:32;;;;;;;3.80;1.20;;;;;;;;;;1853841;75;27755;-46
2022/12/03 07:14:01;;;;;;;3.57;1.10;;;;;;;;;;1821031;77;21044;-44
2022/12/03 07:16:27;;;;;;;5.63;1.33;;;;;;;;;;1817856;77;21972;-44
2022/12/03 07:18:54;;;;;;;7.50;1.13;;;;;;;;;;1810597;77;21054;-43
2022/12/03 07:21:21;;;;;;;7.83;1.63;;;;;;;;;;1794898;77;21024;-47
2022/12/03 07:23:47;;;;;;;7.07;1.87;;;;;;;;;;1800690;77;21025;-45
2022/12/03 07:26:13;;;;;;;6.87;1.53;;;;;;;;;;1793480;77;21100;-44
2022/12/03 07:28:39;;;;;;;5.47;1.60;;;;;;;;;;1796717;77;21838;-45
2022/12/03 07:31:06;;;;;;;3.67;1.40;;;;;;;;;;1781515;77;21522;-48
2022/12/03 07:33:34;;;;;;;5.13;1.67;;;;;;;;;;1735688;77;20949;-47
2022/12/03 07:36:00;;;;;;;9.83;1.87;;;;;;;;;;1733356;80;21384;-46
2022/12/03 07:38:26;;;;;;;5.17;1.70;;;;;;;;;;1734559;80;21510;-46
2022/12/03 07:40:52;;;;;;;8.33;1.43;;;;;;;;;;1771637;79;21785;-46
2022/12/03 07:43:18;;;;;;;13.20;2.83;;;;;;;;;;1751709;80;21359;-45
2022/12/03 07:45:44;;;;;;;9.40;1.80;;;;;;;;;;1757161;80;21013;-46
2022/12/03 07:48:11;;;;;;;7.50;2.70;;;;;;;;;;1747197;80;21474;-45
2022/12/03 07:50:37;;;;;;;11.20;2.47;;;;;;;;;;1739784;80;21108;-46
2022/12/03 07:53:03;;;;;;;12.20;2.13;;;;;;;;;;1718812;81;23291;-45
2022/12/03 07:55:29;;;;;;;7.37;2.33;;;;;;;;;;1725984;81;21315;-47
2022/12/03 07:57:55;;;;;;;6.87;2.30;;;;;;;;;;1745887;79;21978;-45
2022/12/03 08:00:22;;;;;;;9.87;2.40;;;;;;;;;;1754339;79;21064;-46
2022/12/03 08:02:48;;;;;;;7.00;2.67;;;;;;;;;;1750317;79;21056;-46
2022/12/03 08:05:14;;;;;;;8.87;2.87;;;;;;;;;;1749650;79;21922;-44
2022/12/03 08:07:40;;;;;;;9.73;2.90;;;;;;;;;;1750093;79;21104;-46
2022/12/03 08:10:07;;;;;;;6.27;2.03;;;;;;;;;;1754750;79;21030;-46
2022/12/03 08:12:41;;;;;;;10.10;2.83;;;;;;;;;;1750361;79;21080;-45
2022/12/03 08:15:19;;;;;;;10.85;4.67;;;;;;;;;;1746551;79;21645;-45
2022/12/03 08:17:47;;;;;;;8.83;3.00;;;;;;;;;;1748134;79;21696;-46
2022/12/03 08:20:18;;;;;;;8.80;2.47;;;;;;;;;;1753686;79;21092;-46
2022/12/03 08:22:45;;;;;;;8.73;2.70;;;;;;;;;;1748438;79;21064;-48
2022/12/03 08:25:26;;;;;;;10.90;3.40;;;;;;;;;;1752602;79;21128;-45
2022/12/03 08:28:08;;;;;;;7.67;2.80;;;;;;;;;;1747780;79;21068;-46
2022/12/03 08:30:34;;;;;;;11.03;2.77;;;;;;;;;;1773972;79;21805;-45
2022/12/03 08:33:00;;;;;;;19.33;10.40;;;;;;;;;;1750757;80;21076;-45
2022/12/03 08:35:28;;;;;;;11.17;5.47;;;;;;;;;;1775959;79;21058;-47
2022/12/03 08:38:03;;;;;;;9.70;4.17;;;;;;;;;;1765691;79;21032;-44
2022/12/03 08:40:34;;;;;;;8.53;3.50;;;;;;;;;;1770327;79;21076;-47
2022/12/03 08:43:00;;;;;;;8.53;4.70;;;;;;;;;;1747257;80;21811;-48
2022/12/03 08:45:38;;;;;;;8.03;2.60;;;;;;;;;;1743988;80;21067;-46
2022/12/03 08:48:08;;;;;;;6.27;1.87;;;;;;;;;;1742317;80;21579;-46
2022/12/03 08:50:39;;;;;;;4.67;2.03;;;;;;;;;;1715817;81;21040;-46
2022/12/03 08:53:14;;;;;;;4.73;2.37;;;;;;;;;;1749027;79;21118;-46
2022/12/03 08:55:44;;;;;;;4.03;1.57;;;;;;;;;;1746988;79;21743;-47
2022/12/03 08:58:31;;;;;;;6.77;2.20;;;;;;;;;;1715435;79;21068;-46
2022/12/03 09:01:01;;;;;;;7.33;2.77;;;;;;;;;;1760673;79;21002;-45
2022/12/03 09:03:29;;;;;;;7.97;3.37;;;;;;;;;;1747379;79;21585;-46
2022/12/03 09:05:55;;;;;;;4.57;2.73;;;;;;;;;;1760368;79;21319;-47
2022/12/03 09:08:21;;;;;;;15.97;4.33;;;;;;;;;;1752748;79;21823;-46
2022/12/03 09:10:47;;;;;;;6.03;2.50;;;;;;;;;;1743028;79;21064;-47
2022/12/03 09:13:13;;;;;;;10.33;2.83;;;;;;;;;;1749905;81;22479;-47
2022/12/03 09:15:39;;;;;;;7.80;2.67;;;;;;;;;;1750326;80;21033;-47
2022/12/03 09:18:06;;;;;;;4.93;1.93;;;;;;;;;;1772585;78;21044;-47
2022/12/03 09:20:32;;;;;;;5.43;2.97;;;;;;;;;;1756731;80;21970;-47
2022/12/03 09:22:58;;;;;;;5.50;2.93;;;;;;;;;;1754364;80;21032;-47
2022/12/03 09:25:24;;;;;;;3.50;2.20;;;;;;;;;;1746611;80;21091;-47
2022/12/03 09:27:50;;;;;;;5.57;1.70;;;;;;;;;;1755230;80;21671;-47
2022/12/03 09:30:16;;;;;;;6.50;3.40;;;;;;;;;;1751297;80;21083;-47
2022/12/03 09:32:42;;;;;;;5.90;2.37;;;;;;;;;;1755779;80;21891;-47
2022/12/03 09:35:09;;;;;;;6.37;2.70;;;;;;;;;;1748160;80;21064;-47
2022/12/03 09:37:35;;;;;;;8.77;2.50;;;;;;;;;;1760612;80;21084;-47
2022/12/03 09:40:01;;;;;;;10.37;3.47;;;;;;;;;;1755762;80;21067;-47
2022/12/03 09:42:27;;;;;;;10.00;2.93;;;;;;;;;;1756734;80;21119;-47
2022/12/03 09:44:53;;;;;;;7.10;2.97;;;;;;;;;;1757727;80;22276;-46
2022/12/03 09:47:19;;;;;;;8.47;3.47;;;;;;;;;;1757368;80;21001;-47
2022/12/03 09:49:45;;;;;;;10.33;3.77;;;;;;;;;;1754273;80;21012;-47
2022/12/03 09:52:15;;;;;;;7.33;3.17;;;;;;;;;;1746986;80;21517;-48
2022/12/03 09:54:41;;;;;;;7.93;2.97;;;;;;;;;;1738739;80;21008;-47
2022/12/03 09:57:08;;;;;;;10.27;3.87;;;;;;;;;;1756486;80;21713;-47
2022/12/03 09:59:35;;;;;;;10.47;4.20;;;;;;;;;;1758307;80;21050;-47
2022/12/03 10:02:01;;;;;;;8.17;3.00;;;;;;;;;;1751874;80;21052;-47
2022/12/03 10:04:27;;;;;;;6.43;3.10;;;;;;;;;;1761466;80;21071;-46
2022/12/03 10:06:54;;;;;;;6.57;2.70;;;;;;;;;;1746953;80;21057;-47
2022/12/03 10:09:23;;;;;;;7.53;3.07;;;;;;;;;;1726228;81;22871;-47
2022/12/03 10:11:49;;;;;;;4.93;2.07;;;;;;;;;;1734214;80;21082;-47
2022/12/03 10:14:16;;;;;;;9.27;3.43;;;;;;;;;;1770288;78;21035;-47
2022/12/03 10:16:42;;;;;;;5.27;3.73;;;;;;;;;;1786131;78;21643;-47
2022/12/03 10:19:09;;;;;;;8.57;3.73;;;;;;;;;;1772533;80;21070;-47
2022/12/03 10:21:35;;;;;;;6.73;3.63;;;;;;;;;;1776850;78;21827;-47
2022/12/03 10:24:17;;;;;;;7.40;3.83;;;;;;;;;;1732948;80;21071;-47
2022/12/03 10:26:44;;;;;;;7.27;2.20;;;;;;;;;;1753651;80;21048;-46
2022/12/03 10:29:13;;;;;;;7.07;3.10;;;;;;;;;;1756035;80;21490;-46
2022/12/03 10:31:39;;;;;;;8.67;3.63;;;;;;;;;;1753183;80;21035;-46
2022/12/03 10:34:05;;;;;;;7.33;3.97;;;;;;;;;;1771886;78;21701;-46
2022/12/03 10:36:32;;;;;;;10.30;4.03;;;;;;;;;;1778512;78;21048;-46
2022/12/03 10:39:14;;;;;;;11.73;4.20;;;;;;;;;;1772650;78;21028;-47
2022/12/03 10:41:42;;;;;;;12.03;3.83;;;;;;;;;;1778555;78;21076;-46
2022/12/03 10:44:19;;;;;;;8.40;2.70;;;;;;;;;;1770147;78;21077;-46
2022/12/03 10:46:45;;;;;;;9.43;4.20;;;;;;;;;;1776199;78;22523;-46
2022/12/03 10:49:16;;;;;;;11.77;4.20;;;;;;;;;;1778755;78;21322;-46
2022/12/03 10:51:44;;;;;;;10.90;5.10;;;;;;;;;;1782240;78;20988;-46
2022/12/03 10:54:20;;;;;;;11.70;3.63;;;;;;;;;;1756361;80;21197;-47
2022/12/03 10:56:46;;;;;;;9.50;3.03;;;;;;;;;;1761764;80;21525;-47
2022/12/03 10:59:20;;;;;;;7.27;2.97;;;;;;;;;;1752993;80;21693;-47
2022/12/03 11:01:46;;;;;;;10.05;3.80;;;;;;;;;;1755178;80;21532;-46
2022/12/03 11:04:31;;;;;;;5.67;2.30;;;;;;;;;;1761604;80;21345;-47
2022/12/03 11:06:57;;;;;;;7.87;3.10;;;;;;;;;;1774137;78;21516;-47
2022/12/03 11:12:34;;;;;;;9.17;4.60;;;;;;;;;;1776477;78;27898;-46
2022/12/03 11:15:08;;;;;;;9.10;3.20;;;;;;;;;;1745330;80;21057;-46
2022/12/03 11:17:44;;;;;;;9.23;3.13;;;;;;;;;;1747209;80;23049;-47
2022/12/03 11:20:26;;;;;;;9.23;2.97;;;;;;;;;;1722246;81;21007;-47
2022/12/03 11:22:54;;;;;;;6.67;3.03;;;;;;;;;;1725774;81;21374;-47
2022/12/03 11:25:30;;;;;;;7.67;3.30;;;;;;;;;;1711948;81;21072;-47
2022/12/03 11:28:15;;;;;;;8.13;2.97;;;;;;;;;;1707640;81;21613;-47
2022/12/03 11:31:01;;;;;;;9.27;3.27;;;;;;;;;;1659389;83;21857;-47
2022/12/03 11:33:24;;;;;;;6.67;2.23;;;;;;;;;;1661481;84;21046;-47
2022/12/03 11:36:06;;;;;;;4.53;1.90;;;;;;;;;;1662033;84;21069;-48
2022/12/03 11:38:40;;;;;;;5.87;2.60;;;;;;;;;;1670774;84;21167;-46
2022/12/03 11:41:13;;;;;;;21.30;6.97;;;;;;;;;;1641194;84;21355;-46
2022/12/03 11:43:55;;;;;;;6.57;2.50;;;;;;;;;;1663104;84;21899;-47
2022/12/03 11:46:23;;;;;;;7.33;2.50;;;;;;;;;;1668168;84;21056;-47
2022/12/03 11:48:51;;;;;;;5.13;1.93;;;;;;;;;;1663000;84;21566;-47
2022/12/03 11:51:18;;;;;;;10.73;3.47;;;;;;;;;;1661014;84;21595;-47
2022/12/03 11:53:44;;;;;;;3.57;1.47;;;;;;;;;;1683247;83;21489;-47
2022/12/03 11:56:27;;;;;;;4.10;1.83;;;;;;;;;;1676145;84;21909;-46
2022/12/03 11:58:58;;;;;;;6.70;2.20;;;;;;;;;;1667851;84;21049;-46
2022/12/03 12:01:35;;;;;;;8.80;2.63;;;;;;;;;;1666356;84;21065;-47
2022/12/03 12:04:01;;;;;;;4.33;2.00;;;;;;;;;;1662708;84;21188;-47
2022/12/03 12:06:27;;;;;;;9.30;2.57;;;;;;;;;;1667034;84;21704;-47
2022/12/03 12:08:56;;;;;;;5.80;2.43;;;;;;;;;;1667049;84;21976;-47
2022/12/03 12:11:29;;;;;;;5.67;1.50;;;;;;;;;;1665079;84;21094;-47
2022/12/03 12:14:03;;;;;;;6.37;2.20;;;;;;;;;;1709950;81;21037;-45
2022/12/03 12:16:51;;;;;;;5.12;1.50;;;;;;;;;;1718141;81;21820;-47
2022/12/03 12:19:33;;;;;;;5.87;1.80;;;;;;;;;;1711735;81;21239;-48
2022/12/03 12:22:15;;;;;;;3.67;1.33;;;;;;;;;;1710782;81;21860;-47
2022/12/03 12:24:47;;;;;;;3.80;2.47;;;;;;;;;;1712231;81;21065;-46
2022/12/03 12:27:36;;;;;;;4.87;2.70;;;;;;;;;;1716157;81;21086;-46
2022/12/03 12:30:14;;;;;;;3.60;1.13;;;;;;;;;;1714883;81;21085;-45
2022/12/03 12:32:46;;;;;;;4.27;1.83;;;;;;;;;;1717285;81;21492;-47
2022/12/03 12:35:16;;;;;;;8.47;2.90;;;;;;;;;;1710782;81;21844;-47
2022/12/03 12:38:10;;;;;;;28.13;14.20;;;;;;;;;;1719619;81;21480;-47
2022/12/03 12:40:38;;;;;;;19.53;9.47;;;;;;;;;;1714002;81;21053;-46
2022/12/03 12:43:22;;;;;;;5.33;2.57;;;;;;;;;;1711190;81;21057;-47
2022/12/03 12:45:48;;;;;;;4.17;1.37;;;;;;;;;;1711205;81;24033;-47
2022/12/03 12:48:21;;;;;;;7.63;1.70;;;;;;;;;;1697394;82;21855;-47
2022/12/03 12:50:59;;;;;;;5.03;1.67;;;;;;;;;;1707688;81;21218;-47
2022/12/03 12:53:32;;;;;;;6.03;1.30;;;;;;;;;;1714122;81;21032;-47
2022/12/03 12:56:00;;;;;;;4.97;2.13;;;;;;;;;;1713761;81;21091;-47
2022/12/03 12:58:30;;;;;;;2.47;1.33;;;;;;;;;;1709062;81;21080;-47
2022/12/03 13:00:59;;;;;;;2.87;1.57;;;;;;;;;;1713414;81;21729;-47
2022/12/03 13:03:27;;;;;;;4.43;1.80;;;;;;;;;;1710647;81;21019;-47
2022/12/03 13:05:55;;;;;;;3.03;1.13;;;;;;;;;;1721572;81;21095;-47
2022/12/03 13:08:27;;;;;;;1.90;1.30;;;;;;;;;;1698268;81;21025;-47
2022/12/03 13:10:54;;;;;;;4.20;1.30;;;;;;;;;;1710917;81;21052;-47
2022/12/03 13:13:25;;;;;;;4.60;1.07;;;;;;;;;;1710582;81;23221;-47
2022/12/03 13:15:57;;;;;;;2.90;1.07;;;;;;;;;;1700375;82;21143;-47
2022/12/03 13:18:39;;;;;;;4.13;1.50;;;;;;;;;;1698883;82;21077;-47
2022/12/03 13:21:26;;;;;;;6.03;1.97;;;;;;;;;;1705307;82;21042;-47
2022/12/03 13:23:54;;;;;;;5.90;1.73;;;;;;;;;;1699595;82;21072;-47
2022/12/03 13:26:23;;;;;;;2.53;1.37;;;;;;;;;;1696468;82;21950;-47
2022/12/03 13:28:50;;;;;;;6.30;2.20;;;;;;;;;;1702865;82;21509;-46
2022/12/03 13:31:22;;;;;;;3.87;1.57;;;;;;;;;;1698165;82;21097;-47
2022/12/03 13:33:49;;;;;;;4.30;1.77;;;;;;;;;;1704666;82;21365;-47
2022/12/03 13:36:15;;;;;;;1.83;1.10;;;;;;;;;;1700788;82;21192;-47
2022/12/03 13:38:42;;;;;;;4.50;2.00;;;;;;;;;;1700259;82;21892;-47
2022/12/03 13:42:37;;;;;;;3.70;1.67;;;;;;;;;;1701030;82;21042;-47
2022/12/03 13:43:39;;;;;;;4.03;1.30;;;;;;;;;;1700670;82;21099;-47
2022/12/03 13:46:07;;;;;;;7.53;1.93;;;;;;;;;;1702621;82;21065;-47
2022/12/03 13:48:34;;;;;;;4.43;1.90;;;;;;;;;;1698088;82;21036;-47
2022/12/03 13:51:03;;;;;;;4.90;2.07;;;;;;;;;;1695435;82;21913;-47
2022/12/03 13:53:35;;;;;;;4.87;1.93;;;;;;;;;;1699194;82;21619;-47
2022/12/03 13:56:17;;;;;;;5.17;1.43;;;;;;;;;;1700946;82;21034;-47
2022/12/03 13:58:43;;;;;;;4.40;2.23;;;;;;;;;;1690956;82;21053;-46
2022/12/03 14:01:09;;;;;;;7.37;3.50;;;;;;;;;;1704072;82;21052;-46
2022/12/03 14:03:36;;;;;;;7.93;3.57;;;;;;;;;;1699761;82;21839;-46
2022/12/03 14:06:02;;;;;;;13.07;5.97;;;;;;;;;;1700918;82;21093;-46
2022/12/03 14:08:29;;;;;;;8.97;4.23;;;;;;;;;;1704601;82;20975;-46
2022/12/03 14:10:55;;;;;;;9.53;4.77;;;;;;;;;;1700017;82;21105;-46
2022/12/03 14:13:21;;;;;;;3.17;1.40;;;;;;;;;;1701135;81;21073;-46
2022/12/03 14:15:47;;;;;;;8.27;3.10;;;;;;;;;;1699392;82;21860;-47
2022/12/03 14:18:13;;;;;;;11.17;5.80;;;;;;;;;;1700311;82;21379;-46
2022/12/03 14:20:39;;;;;;;7.53;2.67;;;;;;;;;;1696550;82;21589;-46
2022/12/03 14:23:06;;;;;;;4.47;2.30;;;;;;;;;;1701059;82;21651;-46
2022/12/03 14:25:32;;;;;;;5.50;3.40;;;;;;;;;;1699305;82;21074;-46
2022/12/03 14:27:59;;;;;;;3.13;1.30;;;;;;;;;;1697764;82;22947;-46
2022/12/03 14:30:26;;;;;;;6.13;1.67;;;;;;;;;;1702694;82;21301;-46
2022/12/03 14:32:52;;;;;;;5.37;1.83;;;;;;;;;;1694240;82;21559;-46
2022/12/03 14:35:18;;;;;;;4.50;1.60;;;;;;;;;;1700308;82;21113;-46
2022/12/03 14:37:44;;;;;;;3.43;1.60;;;;;;;;;;1700629;82;21689;-46
2022/12/03 14:40:10;;;;;;;3.13;1.30;;;;;;;;;;1699029;82;22240;-46
2022/12/03 14:42:38;;;;;;;3.43;1.27;;;;;;;;;;1699853;82;21125;-46
2022/12/03 14:45:05;;;;;;;5.20;1.40;;;;;;;;;;1699787;82;21144;-46
2022/12/03 14:47:32;;;;;;;3.40;1.70;;;;;;;;;;1703382;82;21079;-46
2022/12/03 14:49:59;;;;;;;4.47;1.47;;;;;;;;;;1698347;82;21446;-46
2022/12/03 14:52:25;;;;;;;3.43;1.60;;;;;;;;;;1699077;82;23355;-46
2022/12/03 14:54:51;;;;;;;3.10;1.67;;;;;;;;;;1699896;82;21093;-46
2022/12/03 14:57:17;;;;;;;2.70;1.20;;;;;;;;;;1704395;82;21076;-46
2022/12/03 14:59:45;;;;;;;5.63;1.73;;;;;;;;;;1699171;82;22117;-46
2022/12/03 15:02:12;;;;;;;5.33;1.53;;;;;;;;;;1693155;82;21094;-46
2022/12/03 15:04:39;;;;;;;5.13;1.73;;;;;;;;;;1700543;82;21834;-46
2022/12/03 15:07:05;;;;;;;6.13;1.90;;;;;;;;;;1696240;82;21539;-46
2022/12/03 15:09:31;;;;;;;3.23;1.83;;;;;;;;;;1703449;82;21499;-46
2022/12/03 15:11:58;;;;;;;6.50;1.57;;;;;;;;;;1697932;82;21042;-46
2022/12/03 15:14:25;;;;;;;4.63;1.73;;;;;;;;;;1703041;82;21043;-46